Buoy 41560

sailwx.info

Track history (hours):
 
Tides and Currents Weather Stations Pressure Air Temp Water Temp Dewpoint Dewpoint Depression Visibility Wind Speed Wind Dir Waves Ship Positions

Drifting buoy 41560

Last reported at 2014-Aug-22 07:00 UTC. Time now 2014-Aug-22 09:53 UTC.
Position N 40°31' W 021°58'.

Barometer 1020.9 mb

Date/timePositionNaut miles runAvg speedWind from/ knotsBaromVisibWave heightAir tempDewpointWater temp
2014-Aug-22 07:00N 40°31' W 021°58'1 0.6 1020.9
2014-Aug-22 06:00N 40°31' W 021°57'0 0.4 1020.5
2014-Aug-22 05:00N 40°31' W 021°57'0 0.0 1020.4
2014-Aug-22 04:00N 40°31' W 021°57'0 0.5 1020.6
2014-Aug-22 03:00N 40°32' W 021°58'1 0.2 1020.5
2014-Aug-21 23:00N 40°32' W 021°58'0 0.1 1020.9
2014-Aug-21 22:00N 40°32' W 021°58'0 0.4 1020.7
2014-Aug-21 21:00N 40°32' W 021°58'1 0.6 1020.1
2014-Aug-21 20:00N 40°32' W 021°59'0 0.2 1019.6
2014-Aug-21 19:00N 40°31' W 021°59'0 0.4 1019.2
2014-Aug-21 18:00N 40°31' W 021°59'1 0.5 1019.0
2014-Aug-21 17:00N 40°31' W 021°58'1 0.6 1018.9
2014-Aug-21 16:00N 40°31' W 021°58'0 0.2 1019.0
2014-Aug-21 15:00N 40°30' W 021°57'1 1.4 1019.2
2014-Aug-21 14:00N 40°31' W 021°56'1 0.5 1019.2
2014-Aug-21 13:00N 40°31' W 021°56'1 0.5 1019.4
2014-Aug-21 12:00N 40°31' W 021°56'1 0.6 1019.5
2014-Aug-21 11:00N 40°31' W 021°55'0 0.4 1019.5
2014-Aug-21 10:00N 40°32' W 021°55'1 1.1 1019.2
2014-Aug-21 09:00N 40°33' W 021°55'0 0.0 1019.0
2014-Aug-21 08:00N 40°33' W 021°55'1 0.7 1018.5
2014-Aug-21 07:00N 40°33' W 021°56'1 0.5 1018.3
2014-Aug-21 06:00N 40°34' W 021°55'2 1.5 1017.8
2014-Aug-21 05:00N 40°34' W 021°57'1 0.4 1017.9
2014-Aug-21 03:00N 40°34' W 021°58'0 0.0 1018.4
2014-Aug-21 02:00N 40°34' W 021°58'2 0.5 1019.0
2014-Aug-20 23:00N 40°32' W 021°59'1 0.6 1019.9
2014-Aug-20 22:00N 40°32' W 021°58'0 0.0 1020.4
2014-Aug-20 21:00N 40°32' W 021°58'0 0.5 1020.3
2014-Aug-20 20:00N 40°33' W 021°58'1 0.5 1020.0
2014-Aug-20 18:00N 40°33' W 021°59'0 0.4 1020.4
2014-Aug-20 17:00N 40°34' W 021°59'1 0.9 1020.5
2014-Aug-20 16:00N 40°35' W 021°59'1 0.7 1020.7
2014-Aug-20 15:00N 40°35' W 021°60'0 0.1 1020.9
2014-Aug-20 12:00N 40°35' W 021°60'1 0.5 1021.6
2014-Aug-20 10:00N 40°36' W 021°60'2 1.5 1021.2
2014-Aug-20 09:00N 40°36' W 022°02'0 0.0 1021.1
2014-Aug-20 08:00N 40°36' W 022°02'0 0.1 1020.9
2014-Aug-20 07:00N 40°36' W 022°02'0 0.2 1020.7
2014-Aug-20 06:00N 40°36' W 022°02'1 0.6 1020.5
2014-Aug-20 05:00N 40°36' W 022°03'1 0.6 1020.3
2014-Aug-20 03:00N 40°36' W 022°01'2 0.5 1020.2
2014-Aug-20 00:00N 40°37' W 022°01'0 0.0 1020.9
2014-Aug-19 23:00N 40°37' W 022°01'1 1.3 1020.7
2014-Aug-19 22:00N 40°39' W 022°00'2 0.7 1020.8
2014-Aug-19 19:00N 40°40' W 022°02'1 0.8 1019.5
2014-Aug-19 18:00N 40°41' W 022°03'1 0.5 1019.4
2014-Aug-19 17:00N 40°41' W 022°03'1 0.6 1019.2
2014-Aug-19 16:00N 40°42' W 022°04'0 0.5 1019.0
2014-Aug-19 15:00N 40°41' W 022°04'0 0.0 1019.0
2014-Aug-19 14:00N 40°41' W 022°04'1 0.3 1018.8
2014-Aug-19 12:00N 40°42' W 022°04'0 0.4 1018.4
2014-Aug-19 11:00N 40°42' W 022°04'1 0.6 1018.2
2014-Aug-19 10:00N 40°43' W 022°04'0 0.0 1017.9
2014-Aug-19 07:00N 40°43' W 022°03'1 0.4 1016.8
2014-Aug-19 05:00N 40°43' W 022°03'1 1.4 1016.2
2014-Aug-19 04:00N 40°45' W 022°04'0 0.0 1016.2
2014-Aug-19 03:00N 40°45' W 022°04'3 0.8 1015.8
2014-Aug-18 23:00N 40°48' W 022°05'1 0.6 1015.6
2014-Aug-18 22:00N 40°48' W 022°05'1 0.6 1015.2
2014-Aug-18 21:00N 40°48' W 022°06'1 1.1 1014.8
2014-Aug-18 20:00N 40°48' W 022°07'0 0.1 1014.5
2014-Aug-18 19:00N 40°48' W 022°08'0 0.5 1014.3
2014-Aug-18 18:00N 40°48' W 022°08'0 0.2 1014.4
2014-Aug-18 17:00N 40°47' W 022°08'0 0.1 1014.4
2014-Aug-18 15:00N 40°48' W 022°08'1 0.4 1014.5
2014-Aug-18 13:00N 40°48' W 022°07'0 0.4 1014.8
2014-Aug-18 12:00N 40°48' W 022°08'1 1.1 1014.8
2014-Aug-18 11:00N 40°50' W 022°07'0 0.0 1014.5
2014-Aug-18 10:00N 40°50' W 022°07'2 0.8 1014.0
2014-Aug-18 07:00N 40°51' W 022°10'1 0.5 1013.9
2014-Aug-18 06:00N 40°50' W 022°11'0 0.3 1013.8
2014-Aug-18 05:00N 40°51' W 022°11'1 0.9 1014.1
2014-Aug-18 04:00N 40°50' W 022°12'0 0.0 1014.6
2014-Aug-18 03:00N 40°50' W 022°12'1 1.2 1015.0
2014-Aug-18 02:00N 40°49' W 022°14'0 0.0 1015.6
2014-Aug-18 01:00N 40°49' W 022°14'2 1.6 1016.2
2014-Aug-18 00:00N 40°48' W 022°14'0 0.1 1016.5
2014-Aug-17 23:00N 40°48' W 022°14'0 0.5 1016.8
2014-Aug-17 22:00N 40°47' W 022°14'1 0.8 1017.3
2014-Aug-17 21:00N 40°47' W 022°12'0 0.4 1017.1
2014-Aug-17 20:00N 40°47' W 022°13'0 0.0 1017.0
2014-Aug-17 19:00N 40°47' W 022°13'1 0.5 1017.1
2014-Aug-17 18:00N 40°46' W 022°13'0 0.2 1017.9
2014-Aug-17 17:00N 40°46' W 022°13'0 0.0 1018.4
2014-Aug-17 16:00N 40°46' W 022°13'0 0.1 1019.0
2014-Aug-17 15:00N 40°47' W 022°13'2 0.9 1019.6
2014-Aug-17 13:00N 40°48' W 022°14'0 0.3 1020.0
2014-Aug-17 12:00N 40°48' W 022°14'0 0.4 1020.4
2014-Aug-17 11:00N 40°48' W 022°14'2 0.5 1020.8
2014-Aug-17 08:00N 40°47' W 022°16'3 1.0 1020.9
2014-Aug-17 05:00N 40°44' W 022°17'0 0.3 1021.1
2014-Aug-17 04:00N 40°44' W 022°17'2 0.9 1021.7
2014-Aug-17 02:00N 40°43' W 022°15'0 0.0 1022.9
2014-Aug-17 01:00N 40°43' W 022°15'1 0.6 1023.5
2014-Aug-16 23:00N 40°44' W 022°13'1 0.5 1024.3
2014-Aug-16 22:00N 40°44' W 022°13'1 0.4 1024.4
2014-Aug-16 19:00N 40°45' W 022°14'1 0.6 1024.6
2014-Aug-16 18:00N 40°45' W 022°14'1 0.6 1025.0
2014-Aug-16 17:00N 40°45' W 022°15'1 0.7 1024.8
2014-Aug-16 16:00N 40°44' W 022°16'0 0.1 1025.4
2014-Aug-16 15:00N 40°44' W 022°16'1 0.8 1026.0
2014-Aug-16 14:00N 40°44' W 022°16'1 0.5 1026.5
2014-Aug-16 12:00N 40°43' W 022°16'1 0.7 1027.2
2014-Aug-16 11:00N 40°42' W 022°15'0 0.4 1027.5
2014-Aug-16 10:00N 40°42' W 022°15'1 0.7 1027.3
2014-Aug-16 08:00N 40°41' W 022°14'0 0.5 1027.6
2014-Aug-16 07:00N 40°41' W 022°13'1 0.8 1026.9
2014-Aug-16 06:00N 40°41' W 022°12'0 0.2 1026.7
2014-Aug-16 05:00N 40°41' W 022°12'1 0.6 1026.8
2014-Aug-16 04:00N 40°41' W 022°12'1 0.2 1027.2
2014-Aug-15 23:00N 40°42' W 022°12'0 0.0 1029.0
2014-Aug-15 22:00N 40°42' W 022°12'1 0.3 1028.9
2014-Aug-15 18:00N 40°41' W 022°13'2 0.8 1027.9
2014-Aug-15 16:00N 40°40' W 022°12'1 0.8 1027.9
2014-Aug-15 15:00N 40°39' W 022°11'2 0.6 1028.0
2014-Aug-15 12:00N 40°40' W 022°09'2 1.2 1028.3
2014-Aug-15 10:00N 40°41' W 022°07'0 0.2 1027.8
2014-Aug-15 09:00N 40°41' W 022°07'1 0.5 1027.6
2014-Aug-15 07:00N 40°42' W 022°07'1 1.2 1026.7
2014-Aug-15 06:00N 40°42' W 022°09'0 0.3 1026.4
2014-Aug-15 05:00N 40°42' W 022°08'0 0.3 1026.2
2014-Aug-15 04:00N 40°42' W 022°09'2 0.4 1026.3
2014-Aug-14 23:00N 40°41' W 022°10'1 1.4 1027.1
2014-Aug-14 22:00N 40°40' W 022°09'0 0.2 1027.0
2014-Aug-14 21:00N 40°40' W 022°08'1 1.4 1026.4
2014-Aug-14 20:00N 40°41' W 022°07'0 0.0 1026.0
2014-Aug-14 19:00N 40°41' W 022°07'0 0.1 1025.7
2014-Aug-14 18:00N 40°41' W 022°07'1 0.6 1025.6
2014-Aug-14 17:00N 40°42' W 022°06'0 0.4 1025.7
2014-Aug-14 16:00N 40°42' W 022°06'1 0.4 1025.6
2014-Aug-14 14:00N 40°43' W 022°07'1 0.7 1025.8
2014-Aug-14 12:00N 40°44' W 022°07'1 0.8 1026.0
2014-Aug-14 11:00N 40°44' W 022°08'1 0.5 1026.1
2014-Aug-14 10:00N 40°44' W 022°08'2 1.7 1025.8
2014-Aug-14 09:00N 40°43' W 022°10'0 0.0 1025.6
2014-Aug-14 08:00N 40°43' W 022°10'0 0.4 1025.1
2014-Aug-14 07:00N 40°43' W 022°09'0 0.4 1024.8
2014-Aug-14 06:00N 40°42' W 022°09'1 0.4 1024.6
2014-Aug-14 04:00N 40°42' W 022°09'0 0.3 1024.8
2014-Aug-14 03:00N 40°42' W 022°09'1 0.3 1024.7
2014-Aug-13 23:00N 40°42' W 022°07'1 0.8 1026.0
2014-Aug-13 22:00N 40°42' W 022°07'0 0.3 1026.0
2014-Aug-13 21:00N 40°42' W 022°07'0 0.1 1025.6
2014-Aug-13 19:00N 40°42' W 022°07'0 0.2 1025.1
2014-Aug-13 18:00N 40°42' W 022°07'0 0.1 1025.4
2014-Aug-13 17:00N 40°42' W 022°07'0 0.4 1025.3
2014-Aug-13 16:00N 40°42' W 022°07'0 0.2 1025.4
2014-Aug-13 15:00N 40°42' W 022°08'0 0.3 1025.6
2014-Aug-13 14:00N 40°42' W 022°08'1 0.8 1025.8
2014-Aug-13 13:00N 40°41' W 022°08'1 0.7 1026.1
2014-Aug-13 12:00N 40°41' W 022°08'1 1.1 1026.3
2014-Aug-13 11:00N 40°40' W 022°07'0 0.4 1026.1
2014-Aug-13 10:00N 40°40' W 022°07'0 0.1 1025.9
2014-Aug-13 09:00N 40°40' W 022°07'2 1.9 1025.8
2014-Aug-13 08:00N 40°39' W 022°05'0 0.3 1025.4
2014-Aug-13 07:00N 40°39' W 022°04'1 1.1 1025.0
2014-Aug-13 06:00N 40°39' W 022°03'0 0.0 1024.5
2014-Aug-13 04:00N 40°39' W 022°03'1 1.0 1024.5
2014-Aug-13 03:00N 40°39' W 022°02'1 0.5 1025.0
2014-Aug-13 00:00N 40°40' W 022°02'1 1.1 1025.5
2014-Aug-12 23:00N 40°41' W 022°01'0 0.3 1025.5
2014-Aug-12 22:00N 40°41' W 022°01'1 1.2 1025.4
2014-Aug-12 21:00N 40°42' W 021°60'2 0.8 1024.7
2014-Aug-12 18:00N 40°40' W 022°01'0 0.2 1023.4
2014-Aug-12 17:00N 40°40' W 022°01'0 0.4 1023.3
2014-Aug-12 16:00N 40°40' W 022°00'1 1.0 1023.3
2014-Aug-12 15:00N 40°39' W 021°60'0 0.0 1023.6
2014-Aug-12 14:00N 40°39' W 021°60'1 0.7 1023.5
2014-Aug-12 12:00N 40°39' W 021°58'1 0.6 1023.6
2014-Aug-12 11:00N 40°39' W 021°57'2 1.8 1023.3
2014-Aug-12 10:00N 40°40' W 021°56'1 0.2 1022.9
2014-Aug-12 07:00N 40°41' W 021°55'   1021.4
Track history (hours):
 
Tides and Currents Weather Stations Pressure Air Temp Water Temp Dewpoint Dewpoint Depression Visibility Wind Speed Wind Dir Waves Ship Positions

Drifting buoy 41560

Last reported at 2014-Aug-22 07:00 UTC. Time now 2014-Aug-22 09:53 UTC.
Position N 40°31' W 021°58'.

Barometer 1020.9 mb

Date/timePositionNaut miles runAvg speedWind from/ knotsBaromVisibWave heightAir tempDewpointWater temp
2014-Aug-22 07:00N 40°31' W 021°58'1 0.6 1020.9
2014-Aug-22 06:00N 40°31' W 021°57'0 0.4 1020.5
2014-Aug-22 05:00N 40°31' W 021°57'0 0.0 1020.4
2014-Aug-22 04:00N 40°31' W 021°57'0 0.5 1020.6
2014-Aug-22 03:00N 40°32' W 021°58'1 0.2 1020.5
2014-Aug-21 23:00N 40°32' W 021°58'0 0.1 1020.9
2014-Aug-21 22:00N 40°32' W 021°58'0 0.4 1020.7
2014-Aug-21 21:00N 40°32' W 021°58'1 0.6 1020.1
2014-Aug-21 20:00N 40°32' W 021°59'0 0.2 1019.6
2014-Aug-21 19:00N 40°31' W 021°59'0 0.4 1019.2
2014-Aug-21 18:00N 40°31' W 021°59'1 0.5 1019.0
2014-Aug-21 17:00N 40°31' W 021°58'1 0.6 1018.9
2014-Aug-21 16:00N 40°31' W 021°58'0 0.2 1019.0
2014-Aug-21 15:00N 40°30' W 021°57'1 1.4 1019.2
2014-Aug-21 14:00N 40°31' W 021°56'1 0.5 1019.2
2014-Aug-21 13:00N 40°31' W 021°56'1 0.5 1019.4
2014-Aug-21 12:00N 40°31' W 021°56'1 0.6 1019.5
2014-Aug-21 11:00N 40°31' W 021°55'0 0.4 1019.5
2014-Aug-21 10:00N 40°32' W 021°55'1 1.1 1019.2
2014-Aug-21 09:00N 40°33' W 021°55'0 0.0 1019.0
2014-Aug-21 08:00N 40°33' W 021°55'1 0.7 1018.5
2014-Aug-21 07:00N 40°33' W 021°56'1 0.5 1018.3
2014-Aug-21 06:00N 40°34' W 021°55'2 1.5 1017.8
2014-Aug-21 05:00N 40°34' W 021°57'1 0.4 1017.9
2014-Aug-21 03:00N 40°34' W 021°58'0 0.0 1018.4
2014-Aug-21 02:00N 40°34' W 021°58'2 0.5 1019.0
2014-Aug-20 23:00N 40°32' W 021°59'1 0.6 1019.9
2014-Aug-20 22:00N 40°32' W 021°58'0 0.0 1020.4
2014-Aug-20 21:00N 40°32' W 021°58'0 0.5 1020.3
2014-Aug-20 20:00N 40°33' W 021°58'1 0.5 1020.0
2014-Aug-20 18:00N 40°33' W 021°59'0 0.4 1020.4
2014-Aug-20 17:00N 40°34' W 021°59'1 0.9 1020.5
2014-Aug-20 16:00N 40°35' W 021°59'1 0.7 1020.7
2014-Aug-20 15:00N 40°35' W 021°60'0 0.1 1020.9
2014-Aug-20 12:00N 40°35' W 021°60'1 0.5 1021.6
2014-Aug-20 10:00N 40°36' W 021°60'2 1.5 1021.2
2014-Aug-20 09:00N 40°36' W 022°02'0 0.0 1021.1
2014-Aug-20 08:00N 40°36' W 022°02'0 0.1 1020.9
2014-Aug-20 07:00N 40°36' W 022°02'0 0.2 1020.7
2014-Aug-20 06:00N 40°36' W 022°02'1 0.6 1020.5
2014-Aug-20 05:00N 40°36' W 022°03'1 0.6 1020.3
2014-Aug-20 03:00N 40°36' W 022°01'2 0.5 1020.2
2014-Aug-20 00:00N 40°37' W 022°01'0 0.0 1020.9
2014-Aug-19 23:00N 40°37' W 022°01'1 1.3 1020.7
2014-Aug-19 22:00N 40°39' W 022°00'2 0.7 1020.8
2014-Aug-19 19:00N 40°40' W 022°02'1 0.8 1019.5
2014-Aug-19 18:00N 40°41' W 022°03'1 0.5 1019.4
2014-Aug-19 17:00N 40°41' W 022°03'1 0.6 1019.2
2014-Aug-19 16:00N 40°42' W 022°04'0 0.5 1019.0
2014-Aug-19 15:00N 40°41' W 022°04'0 0.0 1019.0
2014-Aug-19 14:00N 40°41' W 022°04'1 0.3 1018.8
2014-Aug-19 12:00N 40°42' W 022°04'0 0.4 1018.4
2014-Aug-19 11:00N 40°42' W 022°04'1 0.6 1018.2
2014-Aug-19 10:00N 40°43' W 022°04'0 0.0 1017.9
2014-Aug-19 07:00N 40°43' W 022°03'1 0.4 1016.8
2014-Aug-19 05:00N 40°43' W 022°03'1 1.4 1016.2
2014-Aug-19 04:00N 40°45' W 022°04'0 0.0 1016.2
2014-Aug-19 03:00N 40°45' W 022°04'3 0.8 1015.8
2014-Aug-18 23:00N 40°48' W 022°05'1 0.6 1015.6
2014-Aug-18 22:00N 40°48' W 022°05'1 0.6 1015.2
2014-Aug-18 21:00N 40°48' W 022°06'1 1.1 1014.8
2014-Aug-18 20:00N 40°48' W 022°07'0 0.1 1014.5
2014-Aug-18 19:00N 40°48' W 022°08'0 0.5 1014.3
2014-Aug-18 18:00N 40°48' W 022°08'0 0.2 1014.4
2014-Aug-18 17:00N 40°47' W 022°08'0 0.1 1014.4
2014-Aug-18 15:00N 40°48' W 022°08'1 0.4 1014.5
2014-Aug-18 13:00N 40°48' W 022°07'0 0.4 1014.8
2014-Aug-18 12:00N 40°48' W 022°08'1 1.1 1014.8
2014-Aug-18 11:00N 40°50' W 022°07'0 0.0 1014.5
2014-Aug-18 10:00N 40°50' W 022°07'2 0.8 1014.0
2014-Aug-18 07:00N 40°51' W 022°10'1 0.5 1013.9
2014-Aug-18 06:00N 40°50' W 022°11'0 0.3 1013.8
2014-Aug-18 05:00N 40°51' W 022°11'1 0.9 1014.1
2014-Aug-18 04:00N 40°50' W 022°12'0 0.0 1014.6
2014-Aug-18 03:00N 40°50' W 022°12'1 1.2 1015.0
2014-Aug-18 02:00N 40°49' W 022°14'0 0.0 1015.6
2014-Aug-18 01:00N 40°49' W 022°14'2 1.6 1016.2
2014-Aug-18 00:00N 40°48' W 022°14'0 0.1 1016.5
2014-Aug-17 23:00N 40°48' W 022°14'0 0.5 1016.8
2014-Aug-17 22:00N 40°47' W 022°14'1 0.8 1017.3
2014-Aug-17 21:00N 40°47' W 022°12'0 0.4 1017.1
2014-Aug-17 20:00N 40°47' W 022°13'0 0.0 1017.0
2014-Aug-17 19:00N 40°47' W 022°13'1 0.5 1017.1
2014-Aug-17 18:00N 40°46' W 022°13'0 0.2 1017.9
2014-Aug-17 17:00N 40°46' W 022°13'0 0.0 1018.4
2014-Aug-17 16:00N 40°46' W 022°13'0 0.1 1019.0
2014-Aug-17 15:00N 40°47' W 022°13'2 0.9 1019.6
2014-Aug-17 13:00N 40°48' W 022°14'0 0.3 1020.0
2014-Aug-17 12:00N 40°48' W 022°14'0 0.4 1020.4
2014-Aug-17 11:00N 40°48' W 022°14'2 0.5 1020.8
2014-Aug-17 08:00N 40°47' W 022°16'3 1.0 1020.9
2014-Aug-17 05:00N 40°44' W 022°17'0 0.3 1021.1
2014-Aug-17 04:00N 40°44' W 022°17'2 0.9 1021.7
2014-Aug-17 02:00N 40°43' W 022°15'0 0.0 1022.9
2014-Aug-17 01:00N 40°43' W 022°15'1 0.6 1023.5
2014-Aug-16 23:00N 40°44' W 022°13'1 0.5 1024.3
2014-Aug-16 22:00N 40°44' W 022°13'1 0.4 1024.4
2014-Aug-16 19:00N 40°45' W 022°14'1 0.6 1024.6
2014-Aug-16 18:00N 40°45' W 022°14'1 0.6 1025.0
2014-Aug-16 17:00N 40°45' W 022°15'1 0.7 1024.8
2014-Aug-16 16:00N 40°44' W 022°16'0 0.1 1025.4
2014-Aug-16 15:00N 40°44' W 022°16'1 0.8 1026.0
2014-Aug-16 14:00N 40°44' W 022°16'1 0.5 1026.5
2014-Aug-16 12:00N 40°43' W 022°16'1 0.7 1027.2
2014-Aug-16 11:00N 40°42' W 022°15'0 0.4 1027.5
2014-Aug-16 10:00N 40°42' W 022°15'1 0.7 1027.3
2014-Aug-16 08:00N 40°41' W 022°14'0 0.5 1027.6
2014-Aug-16 07:00N 40°41' W 022°13'1 0.8 1026.9
2014-Aug-16 06:00N 40°41' W 022°12'0 0.2 1026.7
2014-Aug-16 05:00N 40°41' W 022°12'1 0.6 1026.8
2014-Aug-16 04:00N 40°41' W 022°12'1 0.2 1027.2
2014-Aug-15 23:00N 40°42' W 022°12'0 0.0 1029.0
2014-Aug-15 22:00N 40°42' W 022°12'1 0.3 1028.9
2014-Aug-15 18:00N 40°41' W 022°13'2 0.8 1027.9
2014-Aug-15 16:00N 40°40' W 022°12'1 0.8 1027.9
2014-Aug-15 15:00N 40°39' W 022°11'2 0.6 1028.0
2014-Aug-15 12:00N 40°40' W 022°09'2 1.2 1028.3
2014-Aug-15 10:00N 40°41' W 022°07'0 0.2 1027.8
2014-Aug-15 09:00N 40°41' W 022°07'1 0.5 1027.6
2014-Aug-15 07:00N 40°42' W 022°07'1 1.2 1026.7
2014-Aug-15 06:00N 40°42' W 022°09'0 0.3 1026.4
2014-Aug-15 05:00N 40°42' W 022°08'0 0.3 1026.2
2014-Aug-15 04:00N 40°42' W 022°09'2 0.4 1026.3
2014-Aug-14 23:00N 40°41' W 022°10'1 1.4 1027.1
2014-Aug-14 22:00N 40°40' W 022°09'0 0.2 1027.0
2014-Aug-14 21:00N 40°40' W 022°08'1 1.4 1026.4
2014-Aug-14 20:00N 40°41' W 022°07'0 0.0 1026.0
2014-Aug-14 19:00N 40°41' W 022°07'0 0.1 1025.7
2014-Aug-14 18:00N 40°41' W 022°07'1 0.6 1025.6
2014-Aug-14 17:00N 40°42' W 022°06'0 0.4 1025.7
2014-Aug-14 16:00N 40°42' W 022°06'1 0.4 1025.6
2014-Aug-14 14:00N 40°43' W 022°07'1 0.7 1025.8
2014-Aug-14 12:00N 40°44' W 022°07'1 0.8 1026.0
2014-Aug-14 11:00N 40°44' W 022°08'1 0.5 1026.1
2014-Aug-14 10:00N 40°44' W 022°08'2 1.7 1025.8
2014-Aug-14 09:00N 40°43' W 022°10'0 0.0 1025.6
2014-Aug-14 08:00N 40°43' W 022°10'0 0.4 1025.1
2014-Aug-14 07:00N 40°43' W 022°09'0 0.4 1024.8
2014-Aug-14 06:00N 40°42' W 022°09'1 0.4 1024.6
2014-Aug-14 04:00N 40°42' W 022°09'0 0.3 1024.8
2014-Aug-14 03:00N 40°42' W 022°09'1 0.3 1024.7
2014-Aug-13 23:00N 40°42' W 022°07'1 0.8 1026.0
2014-Aug-13 22:00N 40°42' W 022°07'0 0.3 1026.0
2014-Aug-13 21:00N 40°42' W 022°07'0 0.1 1025.6
2014-Aug-13 19:00N 40°42' W 022°07'0 0.2 1025.1
2014-Aug-13 18:00N 40°42' W 022°07'0 0.1 1025.4
2014-Aug-13 17:00N 40°42' W 022°07'0 0.4 1025.3
2014-Aug-13 16:00N 40°42' W 022°07'0 0.2 1025.4
2014-Aug-13 15:00N 40°42' W 022°08'0 0.3 1025.6
2014-Aug-13 14:00N 40°42' W 022°08'1 0.8 1025.8
2014-Aug-13 13:00N 40°41' W 022°08'1 0.7 1026.1
2014-Aug-13 12:00N 40°41' W 022°08'1 1.1 1026.3
2014-Aug-13 11:00N 40°40' W 022°07'0 0.4 1026.1
2014-Aug-13 10:00N 40°40' W 022°07'0 0.1 1025.9
2014-Aug-13 09:00N 40°40' W 022°07'2 1.9 1025.8
2014-Aug-13 08:00N 40°39' W 022°05'0 0.3 1025.4
2014-Aug-13 07:00N 40°39' W 022°04'1 1.1 1025.0
2014-Aug-13 06:00N 40°39' W 022°03'0 0.0 1024.5
2014-Aug-13 04:00N 40°39' W 022°03'1 1.0 1024.5
2014-Aug-13 03:00N 40°39' W 022°02'1 0.5 1025.0
2014-Aug-13 00:00N 40°40' W 022°02'1 1.1 1025.5
2014-Aug-12 23:00N 40°41' W 022°01'0 0.3 1025.5
2014-Aug-12 22:00N 40°41' W 022°01'1 1.2 1025.4
2014-Aug-12 21:00N 40°42' W 021°60'2 0.8 1024.7
2014-Aug-12 18:00N 40°40' W 022°01'0 0.2 1023.4
2014-Aug-12 17:00N 40°40' W 022°01'0 0.4 1023.3
2014-Aug-12 16:00N 40°40' W 022°00'1 1.0 1023.3
2014-Aug-12 15:00N 40°39' W 021°60'0 0.0 1023.6
2014-Aug-12 14:00N 40°39' W 021°60'1 0.7 1023.5
2014-Aug-12 12:00N 40°39' W 021°58'1 0.6 1023.6
2014-Aug-12 11:00N 40°39' W 021°57'2 1.8 1023.3
2014-Aug-12 10:00N 40°40' W 021°56'1 0.2 1022.9
2014-Aug-12 07:00N 40°41' W 021°55'   1021.4

Dump ship's entire track history